Heat Index SAI AWOS Graphical Display Untitled Document
Bertrand Chaffee Hospital Heliport (2NK6) Springville, New York, USA
190
22:08
28/05/2017
12
14
140V200
29.75
3100
1420
75(F), 24(C)
58(F), 14(C)
77 F
62%
FEW055 SCT080 SCT110
10
N/A
0"
N/A
22:08 zulu Wind 170 at 11 Knots, Gusting 14 Knots, Altimeter 29.75
METAR K2NK6 282208Z AUTO 19012G14KT 140V200 10SM FEW055 SCT080 SCT110 24/14 A2975 A02 P0000
METAR:
FAA Disclaimer--Advisory Use ONLY, not for flight info--
INFO:
Wind Direction:
Wind Speed:
Wind Gust:
Wind Variable:
Altimeter:
Dens Alt:
Elev:
Temp:
Dwpt:
Heat Index
Rel Humidity:
Ceiling:
Visibility:
Prsnt Wea:
PCPN:
Remarks:
How to read the WebPage